createdAt,value
2019-06-26T00:03:39.180Z,20.17
2019-06-26T00:07:44.326Z,20.37
2019-06-26T00:11:49.533Z,20.35
2019-06-26T00:15:54.636Z,22.17
2019-06-26T00:19:59.748Z,21.23
2019-06-26T00:24:04.949Z,20.77
2019-06-26T00:28:10.077Z,20.40
2019-06-26T00:32:16.254Z,20.92
2019-06-26T00:36:21.473Z,20.25
2019-06-26T00:40:26.632Z,20.32
2019-06-26T00:44:32.672Z,21.33
2019-06-26T00:48:37.668Z,19.85
2019-06-26T00:52:42.851Z,20.35
2019-06-26T00:56:47.978Z,19.48
2019-06-26T01:00:53.290Z,19.17
2019-06-26T01:05:00.630Z,20.68
2019-06-26T01:09:06.668Z,19.73
2019-06-26T01:13:12.333Z,19.25
2019-06-26T01:17:17.773Z,19.77
2019-06-26T01:21:22.952Z,19.62
2019-06-26T01:25:28.226Z,18.73
2019-06-26T01:29:33.384Z,20.02
2019-06-26T01:33:38.344Z,18.87
2019-06-26T01:37:43.526Z,19.05
2019-06-26T01:41:48.843Z,18.55
2019-06-26T01:45:54.057Z,20.48
2019-06-26T01:49:59.144Z,20.82
2019-06-26T01:54:04.382Z,22.42
2019-06-26T01:58:09.886Z,21.77
2019-06-26T02:02:15.443Z,22.70
2019-06-26T02:06:20.722Z,22.90
2019-06-26T02:10:25.864Z,22.05
2019-06-26T02:14:32.178Z,22.40
2019-06-26T02:18:45.266Z,22.82
2019-06-26T02:22:50.734Z,22.20
2019-06-26T02:26:55.930Z,23.75
2019-06-26T02:31:00.993Z,22.80
2019-06-26T02:35:09.583Z,24.47
2019-06-26T02:39:13.564Z,26.07
2019-06-26T02:43:18.861Z,26.27
2019-06-26T02:47:23.970Z,25.23
2019-06-26T02:51:29.114Z,25.88
2019-06-26T02:55:34.256Z,24.32
2019-06-26T02:59:39.763Z,25.50
2019-06-26T03:03:45.259Z,27.35
2019-06-26T03:07:50.446Z,28.57
2019-06-26T03:11:55.676Z,28.35
2019-06-26T03:16:00.875Z,27.47
2019-06-26T03:20:06.441Z,28.00
2019-06-26T03:24:11.581Z,29.20
2019-06-26T03:28:16.716Z,27.13
2019-06-26T03:32:21.754Z,30.10
2019-06-26T03:36:26.915Z,29.92
2019-06-26T03:40:32.348Z,30.17
2019-06-26T03:44:37.741Z,30.25
2019-06-26T03:48:42.832Z,31.45
2019-06-26T03:52:48.082Z,71.35
2019-06-26T03:56:53.241Z,32.42
2019-06-26T04:00:58.405Z,31.60
2019-06-26T04:05:03.618Z,33.70
2019-06-26T04:09:08.747Z,32.98
2019-06-26T04:13:13.831Z,34.92
2019-06-26T04:17:19.041Z,40.25
2019-06-26T04:21:24.156Z,34.88
2019-06-26T04:25:29.392Z,36.55
2019-06-26T04:29:34.460Z,34.75
2019-06-26T04:33:39.578Z,36.35
2019-06-26T04:37:44.836Z,36.25
2019-06-26T04:41:50.023Z,36.80
2019-06-26T04:45:58.417Z,43.58
2019-06-26T04:50:02.317Z,37.53
2019-06-26T04:54:07.656Z,38.80
2019-06-26T04:58:13.500Z,38.35
2019-06-26T05:02:18.602Z,37.70
2019-06-26T05:06:23.764Z,38.83
2019-06-26T05:10:29.011Z,36.05
2019-06-26T05:14:34.190Z,36.70
2019-06-26T05:18:39.267Z,37.03
2019-06-26T05:22:44.301Z,38.02
2019-06-26T05:26:49.426Z,39.38
2019-06-26T05:30:54.500Z,38.38
2019-06-26T05:34:59.722Z,38.10
2019-06-26T05:39:07.235Z,40.15
2019-06-26T05:43:12.487Z,37.95
2019-06-26T05:47:17.859Z,38.20
2019-06-26T05:51:22.996Z,37.85
2019-06-26T05:55:28.011Z,38.80
2019-06-26T05:59:33.589Z,40.83
2019-06-26T06:03:38.782Z,40.23
2019-06-26T06:07:43.894Z,39.15
2019-06-26T06:11:49.416Z,40.75
2019-06-26T06:15:54.567Z,41.92
2019-06-26T06:19:59.902Z,40.38
2019-06-26T06:24:05.151Z,41.53
2019-06-26T06:28:10.247Z,41.48
2019-06-26T06:32:15.560Z,38.58
2019-06-26T06:36:21.122Z,38.88
2019-06-26T06:40:26.321Z,40.15
2019-06-26T06:44:31.504Z,39.53
2019-06-26T06:48:36.985Z,37.50
2019-06-26T06:52:42.153Z,37.55
2019-06-26T06:56:47.284Z,37.70
2019-06-26T07:00:52.522Z,38.75
2019-06-26T07:04:57.696Z,37.73
2019-06-26T07:09:02.771Z,38.25
2019-06-26T07:13:07.932Z,36.75
2019-06-26T07:17:20.553Z,38.17
2019-06-26T07:21:20.203Z,36.88
2019-06-26T07:25:25.777Z,38.98
2019-06-26T07:29:30.949Z,36.70
2019-06-26T07:33:36.263Z,36.28
2019-06-26T07:37:41.493Z,40.03
2019-06-26T07:41:46.725Z,37.80
2019-06-26T07:45:51.847Z,39.40
2019-06-26T07:49:57.012Z,39.27
2019-06-26T07:54:02.257Z,39.48
2019-06-26T07:58:07.460Z,38.92
2019-06-26T08:02:13.991Z,40.03
2019-06-26T08:06:19.564Z,41.73
2019-06-26T08:10:24.705Z,40.70
2019-06-26T08:14:29.791Z,36.68
2019-06-26T08:18:34.978Z,38.88
2019-06-26T08:22:40.123Z,40.60
2019-06-26T08:26:45.286Z,38.25
2019-06-26T08:30:50.453Z,39.55
2019-06-26T08:35:05.590Z,38.75
2019-06-26T08:39:10.746Z,37.23
2019-06-26T08:43:15.842Z,38.85
2019-06-26T08:47:21.039Z,34.03
2019-06-26T08:51:26.287Z,35.08
2019-06-26T08:55:31.810Z,31.62
2019-06-26T08:59:37.038Z,34.30
2019-06-26T09:03:42.300Z,32.08
2019-06-26T09:07:47.530Z,32.90
2019-06-26T09:11:52.678Z,31.00
2019-06-26T09:15:57.857Z,33.38
2019-06-26T09:20:03.022Z,31.15
2019-06-26T09:24:08.255Z,31.87
2019-06-26T09:28:13.473Z,31.02
2019-06-26T09:32:18.950Z,30.35
2019-06-26T09:36:24.424Z,31.95
2019-06-26T09:40:32.006Z,30.23
2019-06-26T09:44:36.802Z,31.20
2019-06-26T09:48:52.079Z,32.10
2019-06-26T09:52:48.965Z,31.65
2019-06-26T09:56:54.147Z,30.40
2019-06-26T10:00:59.454Z,30.68
2019-06-26T10:05:05.259Z,30.55
2019-06-26T10:09:10.445Z,32.00
2019-06-26T10:13:16.042Z,28.70
2019-06-26T10:17:21.212Z,28.75
2019-06-26T10:21:26.340Z,31.05
2019-06-26T10:25:31.553Z,29.25
2019-06-26T10:29:36.682Z,28.60
2019-06-26T10:33:42.093Z,28.52
2019-06-26T10:37:47.162Z,30.40
2019-06-26T10:41:54.842Z,28.35
2019-06-26T10:45:59.048Z,29.87
2019-06-26T10:50:04.453Z,27.48
2019-06-26T10:54:09.571Z,29.63
2019-06-26T10:58:14.763Z,29.77
2019-06-26T11:02:19.813Z,27.20
2019-06-26T11:06:24.888Z,29.63
2019-06-26T11:10:30.122Z,27.17
2019-06-26T11:14:35.226Z,27.62
2019-06-26T11:18:40.408Z,30.52
2019-06-26T11:22:45.538Z,27.60
2019-06-26T11:26:50.685Z,30.12
2019-06-26T11:30:55.778Z,31.12
2019-06-26T11:35:05.036Z,26.97
2019-06-26T11:39:10.713Z,28.42
2019-06-26T11:43:16.114Z,27.67
2019-06-26T11:47:22.322Z,31.00
2019-06-26T11:51:27.460Z,29.92
2019-06-26T11:55:32.524Z,27.73
2019-06-26T11:59:37.613Z,26.35
2019-06-26T12:03:42.732Z,25.82
2019-06-26T12:07:47.905Z,24.63
2019-06-26T12:11:52.996Z,25.85
2019-06-26T12:15:59.135Z,25.45
2019-06-26T12:20:17.791Z,23.45
2019-06-26T12:24:11.236Z,23.32
2019-06-26T12:28:16.347Z,22.87
2019-06-26T12:32:21.477Z,23.75
2019-06-26T12:36:26.681Z,22.73
2019-06-26T12:40:31.782Z,24.52
2019-06-26T12:44:37.199Z,23.30
2019-06-26T12:48:42.269Z,23.45
2019-06-26T12:52:47.325Z,25.20
2019-06-26T12:56:52.363Z,23.02
2019-06-26T13:00:57.446Z,26.57
2019-06-26T13:05:02.739Z,23.57
2019-06-26T13:09:08.625Z,23.83
2019-06-26T13:13:14.643Z,19.23
2019-06-26T13:17:19.758Z,21.70
2019-06-26T13:21:24.836Z,21.15
2019-06-26T13:25:29.964Z,19.20
2019-06-26T13:29:35.025Z,21.25
2019-06-26T13:33:40.231Z,23.55
2019-06-26T13:37:45.287Z,20.23
2019-06-26T13:41:50.335Z,21.65
2019-06-26T13:45:58.631Z,20.15
2019-06-26T13:50:02.927Z,21.37
2019-06-26T13:54:08.155Z,22.15
2019-06-26T13:58:13.235Z,19.95
2019-06-26T14:02:19.964Z,20.65
2019-06-26T14:06:25.246Z,20.40
2019-06-26T14:10:30.341Z,20.17
2019-06-26T14:14:52.594Z,18.20
2019-06-26T14:18:42.306Z,16.15
2019-06-26T14:22:47.582Z,15.28
2019-06-26T14:26:52.839Z,14.90
2019-06-26T14:30:57.914Z,16.45
2019-06-26T14:35:03.029Z,17.20
2019-06-26T14:39:08.247Z,14.03
2019-06-26T14:43:13.920Z,13.38
2019-06-26T14:47:19.033Z,13.03
2019-06-26T14:51:24.092Z,14.35
2019-06-26T14:55:29.110Z,13.25
2019-06-26T14:59:34.506Z,14.53
2019-06-26T15:03:39.834Z,10.68
2019-06-26T15:07:44.916Z,9.88
2019-06-26T15:11:49.981Z,10.90
2019-06-26T15:15:55.212Z,12.33
2019-06-26T15:24:12.882Z,8.83
2019-06-26T15:28:18.056Z,9.15
2019-06-26T15:32:24.475Z,12.85
2019-06-26T15:36:29.695Z,9.30
2019-06-26T15:40:35.376Z,8.78
2019-06-26T15:44:40.742Z,8.28
2019-06-26T15:48:46.022Z,8.70
2019-06-26T15:52:51.214Z,9.15
2019-06-26T15:56:56.369Z,9.50
2019-06-26T16:01:01.702Z,9.73
2019-06-26T16:05:07.677Z,9.68
2019-06-26T16:09:12.740Z,9.20
2019-06-26T16:13:17.837Z,9.85
2019-06-26T16:17:39.170Z,8.50
2019-06-26T16:21:44.275Z,8.85
2019-06-26T16:25:49.810Z,8.10
2019-06-26T16:29:54.892Z,8.48
2019-06-26T16:34:00.472Z,8.75
2019-06-26T16:38:05.847Z,9.18
2019-06-26T16:42:10.983Z,9.25
2019-06-26T16:46:16.185Z,9.43
2019-06-26T16:50:21.439Z,8.70
2019-06-26T16:54:26.621Z,8.65
2019-06-26T16:58:31.807Z,18.70
2019-06-26T17:02:36.952Z,9.05
2019-06-26T17:06:42.118Z,8.25
2019-06-26T17:10:47.474Z,7.80
2019-06-26T17:14:53.011Z,8.63
2019-06-26T17:19:02.829Z,8.13
2019-06-26T17:23:12.802Z,8.18
2019-06-26T17:27:17.959Z,7.97
2019-06-26T17:31:23.167Z,7.62
2019-06-26T17:35:28.384Z,7.45
2019-06-26T17:39:33.483Z,6.95
2019-06-26T17:43:38.686Z,6.47
2019-06-26T17:47:43.996Z,6.92
2019-06-26T17:51:49.275Z,5.70
2019-06-26T17:55:54.422Z,6.20
2019-06-26T17:59:59.693Z,6.55
2019-06-26T18:04:06.092Z,7.20
2019-06-26T18:08:17.966Z,6.87
2019-06-26T18:12:23.374Z,6.92
2019-06-26T18:16:28.570Z,6.53
2019-06-26T18:20:33.740Z,7.22
2019-06-26T18:24:38.987Z,6.72
2019-06-26T18:28:44.124Z,7.17
2019-06-26T18:32:49.254Z,6.30
2019-06-26T18:36:54.418Z,6.20
2019-06-26T18:40:59.532Z,6.62
2019-06-26T18:45:05.281Z,6.03
2019-06-26T18:49:10.892Z,5.67
2019-06-26T18:53:17.065Z,5.53
2019-06-26T18:57:22.615Z,18.20
2019-06-26T19:01:27.797Z,5.75
2019-06-26T19:05:32.907Z,5.45
2019-06-26T19:09:38.371Z,5.60
2019-06-26T19:13:43.566Z,5.83
2019-06-26T19:17:48.691Z,4.92
2019-06-26T19:21:53.801Z,4.80
2019-06-26T19:25:59.226Z,4.92
2019-06-26T19:30:05.033Z,6.28
2019-06-26T19:34:10.199Z,4.78
2019-06-26T19:38:15.431Z,4.92
2019-06-26T19:42:20.587Z,5.10
2019-06-26T19:46:26.169Z,4.75
2019-06-26T19:50:31.724Z,3.77
2019-06-26T19:54:37.111Z,4.20
2019-06-26T19:58:42.677Z,3.83
2019-06-26T20:02:47.897Z,4.17
2019-06-26T20:06:53.001Z,3.98
2019-06-26T20:10:58.168Z,4.47
2019-06-26T20:15:03.348Z,4.10
2019-06-26T20:19:09.223Z,4.20
2019-06-26T20:23:25.012Z,3.90
2019-06-26T20:27:31.884Z,3.58
2019-06-26T20:31:37.160Z,3.45
2019-06-26T20:35:42.259Z,3.50
2019-06-26T20:39:47.866Z,3.25
2019-06-26T20:43:53.075Z,2.90
2019-06-26T20:47:58.209Z,3.02
2019-06-26T20:52:03.395Z,2.77
2019-06-26T20:56:08.614Z,3.10
2019-06-26T21:00:14.114Z,3.02
2019-06-26T21:04:19.280Z,2.40
2019-06-26T21:08:29.310Z,2.30
2019-06-26T21:12:32.658Z,2.85
2019-06-26T21:16:37.886Z,2.55
2019-06-26T21:20:43.141Z,2.12
2019-06-26T21:24:48.237Z,2.25
2019-06-26T21:28:53.409Z,2.08
2019-06-26T21:32:58.611Z,2.10
2019-06-26T21:37:03.707Z,2.15
2019-06-26T21:41:08.854Z,2.40
2019-06-26T21:45:14.283Z,2.25
2019-06-26T21:49:19.384Z,2.22
2019-06-26T21:53:24.524Z,1.98
2019-06-26T21:57:47.845Z,2.20
2019-06-26T22:02:10.901Z,2.00
2019-06-26T22:06:30.077Z,1.95
2019-06-26T22:10:45.819Z,2.03
2019-06-26T22:14:51.113Z,2.30
2019-06-26T22:18:56.265Z,2.10
2019-06-26T22:23:01.422Z,1.90
2019-06-26T22:27:06.535Z,2.25
2019-06-26T22:31:11.712Z,2.10
2019-06-26T22:35:17.127Z,1.80
2019-06-26T22:39:22.393Z,2.00
2019-06-26T22:43:27.909Z,1.98
2019-06-26T22:47:33.202Z,2.05
2019-06-26T22:51:38.408Z,2.92
2019-06-26T22:55:43.701Z,2.25
2019-06-26T22:59:48.846Z,2.20
2019-06-26T23:03:53.965Z,1.92
2019-06-26T23:07:59.165Z,1.90
2019-06-26T23:12:04.400Z,1.92
2019-06-26T23:16:09.740Z,1.92
2019-06-26T23:20:14.891Z,1.85
2019-06-26T23:24:20.020Z,1.70
2019-06-26T23:28:25.413Z,1.90
2019-06-26T23:32:30.430Z,2.22
2019-06-26T23:36:35.597Z,1.70
2019-06-26T23:40:41.014Z,2.10
2019-06-26T23:44:46.204Z,1.80
2019-06-26T23:48:51.308Z,2.20
2019-06-26T23:52:56.437Z,1.73
2019-06-26T23:57:02.514Z,2.20
